Time;durP1;ratioP1;P1;durP2;ratioP2;P2;SDS_P1;SDS_P2;PMS_P1;PMS_P2;Temp;Humidity;BMP_temperature;BMP_pressure;BME280_temperature;BME280_humidity;BME280_pressure;Samples;Min_cycle;Max_cycle;Signal;HPM_P1;HPM_P2
2023/03/10 00:01:56;;;;;;;;;;;;;;;2.61;89.76;96332.88;5053671;28;20019;-82
2023/03/10 00:04:21;;;;;;;;;;;;;;;2.80;88.80;96326.84;5066645;28;19927;-83
2023/03/10 00:06:46;;;;;;;;;;;;;;;2.84;88.42;96327.13;5070576;28;19928;-82
2023/03/10 00:09:12;;;;;;;;;;;;;;;2.89;88.70;96320.03;5068518;28;20439;-83
2023/03/10 00:11:38;;;;;;;;;;;;;;;3.06;88.30;96319.00;5048232;28;20420;-82
2023/03/10 00:14:03;;;;;;;;;;;;;;;3.07;87.41;96317.94;5072783;28;20358;-82
2023/03/10 00:16:29;;;;;;;;;;;;;;;3.09;87.79;96315.81;5052632;28;19921;-82
2023/03/10 00:18:54;;;;;;;;;;;;;;;3.09;87.70;96315.81;5067801;28;19931;-82
2023/03/10 00:21:22;;;;;;;;;;;;;;;3.02;88.09;96308.97;5065894;28;19916;-82
2023/03/10 00:23:50;;;;;;;;;;;;;;;3.05;87.66;96299.75;5053544;28;19927;-82
2023/03/10 00:26:16;;;;;;;;;;;;;;;2.80;88.76;96297.88;5070075;28;19916;-83
2023/03/10 00:28:42;;;;;;;;;;;;;;;2.98;88.53;96291.31;5072892;28;19966;-82
2023/03/10 00:31:10;;;;;;;;;;;;;;;3.05;87.73;96286.59;5069901;28;19928;-83
2023/03/10 00:33:35;;;;;;;;;;;;;;;3.02;87.82;96285.25;5070422;28;19920;-82
2023/03/10 00:36:08;;;;;;;;;;;;;;;3.01;88.25;96283.66;5071280;28;19920;-83
2023/03/10 00:38:34;;;;;;;;;;;;;;;3.11;87.47;96282.09;5069399;28;19920;-83
2023/03/10 00:41:01;;;;;;;;;;;;;;;3.10;87.90;96283.16;5057614;28;20053;-82
2023/03/10 00:43:26;;;;;;;;;;;;;;;3.09;87.56;96273.66;5069660;28;19928;-82
2023/03/10 00:45:51;;;;;;;;;;;;;;;3.07;88.06;96266.03;5072233;28;19920;-82
2023/03/10 00:48:16;;;;;;;;;;;;;;;3.09;87.73;96257.84;5072850;28;19916;-83
2023/03/10 00:50:42;;;;;;;;;;;;;;;3.08;87.36;96261.56;5071034;28;19924;-82
2023/03/10 00:53:07;;;;;;;;;;;;;;;3.02;87.88;96245.75;5072541;28;20299;-82
2023/03/10 00:55:32;;;;;;;;;;;;;;;3.10;87.71;96239.16;5073741;28;19988;-82
2023/03/10 00:57:58;;;;;;;;;;;;;;;3.06;87.66;96238.09;5069415;28;20292;-82
2023/03/10 01:00:23;;;;;;;;;;;;;;;2.81;89.91;96230.19;5070332;28;19946;-81
2023/03/10 01:02:50;;;;;;;;;;;;;;;3.02;88.71;96222.03;5064853;28;19923;-82
2023/03/10 01:05:15;;;;;;;;;;;;;;;3.07;87.96;96225.72;5050245;28;20397;-83
2023/03/10 01:07:41;;;;;;;;;;;;;;;3.13;88.38;96209.63;5060482;28;20006;-82
2023/03/10 01:10:06;;;;;;;;;;;;;;;3.11;89.33;96208.31;5046743;28;19928;-82
2023/03/10 01:12:31;;;;;;;;;;;;;;;3.13;88.00;96201.72;5064929;28;20104;-83
2023/03/10 01:14:57;;;;;;;;;;;;;;;3.00;90.40;96197.00;5051643;28;20410;-81
2023/03/10 01:17:22;;;;;;;;;;;;;;;3.11;89.24;96189.88;5072131;28;20344;-82
2023/03/10 01:19:47;;;;;;;;;;;;;;;3.15;89.53;96188.28;5069706;28;19994;-81
2023/03/10 01:22:12;;;;;;;;;;;;;;;3.23;88.35;96174.56;5062882;28;19921;-82
2023/03/10 01:24:37;;;;;;;;;;;;;;;3.28;88.04;96169.28;5052242;28;19924;-82
2023/03/10 01:27:03;;;;;;;;;;;;;;;3.25;88.30;96157.44;5070120;28;20451;-82
2023/03/10 01:29:28;;;;;;;;;;;;;;;3.33;87.95;96156.09;5072792;28;19952;-82
2023/03/10 01:31:53;;;;;;;;;;;;;;;3.33;87.84;96159.53;5069761;28;19935;-81
2023/03/10 01:34:18;;;;;;;;;;;;;;;3.29;88.16;96139.25;5072219;28;19932;-82
2023/03/10 01:36:44;;;;;;;;;;;;;;;3.27;88.37;96141.34;5069795;28;19924;-81
2023/03/10 01:39:09;;;;;;;;;;;;;;;3.46;88.65;96134.44;5071193;28;19920;-82
2023/03/10 01:41:38;;;;;;;;;;;;;;;3.35;89.33;96143.44;5051539;28;19920;-81
2023/03/10 01:44:03;;;;;;;;;;;;;;;3.40;89.84;96127.59;5071010;28;20017;-82
2023/03/10 01:46:40;;;;;;;;;;;;;;;3.32;91.08;96122.91;5070496;28;19917;-82
2023/03/10 01:49:22;;;;;;;;;;;;;;;3.32;91.71;96121.03;5083028;28;20338;-83
2023/03/10 01:51:49;;;;;;;;;;;;;;;3.36;91.58;96111.56;5067353;28;19927;-83
2023/03/10 01:54:17;;;;;;;;;;;;;;;3.46;91.29;96111.50;5064040;28;19925;-83
2023/03/10 01:56:44;;;;;;;;;;;;;;;3.41;91.06;96103.59;5064296;28;20372;-82
2023/03/10 01:59:09;;;;;;;;;;;;;;;3.58;90.95;96095.38;5068806;28;20280;-81
2023/03/10 02:01:35;;;;;;;;;;;;;;;3.57;91.75;96096.41;5051025;28;19921;-81
2023/03/10 02:04:03;;;;;;;;;;;;;;;3.60;92.20;96096.66;5063178;28;19928;-81
2023/03/10 02:06:29;;;;;;;;;;;;;;;3.58;91.96;96092.72;5068581;28;20433;-82
2023/03/10 02:08:56;;;;;;;;;;;;;;;3.59;92.02;96084.53;5061878;28;19921;-82
2023/03/10 02:11:22;;;;;;;;;;;;;;;3.64;92.41;96079.25;5061028;28;19920;-82
2023/03/10 02:13:47;;;;;;;;;;;;;;;3.71;92.82;96079.72;5076909;28;19924;-81
2023/03/10 02:16:13;;;;;;;;;;;;;;;3.73;93.33;96076.81;5079792;28;19935;-82
2023/03/10 02:18:39;;;;;;;;;;;;;;;3.70;93.31;96074.72;5050952;28;19921;-82
2023/03/10 02:21:07;;;;;;;;;;;;;;;3.83;93.30;96071.47;5064587;28;19924;-82
2023/03/10 02:23:32;;;;;;;;;;;;;;;3.86;94.22;96067.50;5066190;28;20422;-82
2023/03/10 02:26:06;;;;;;;;;;;;;;;3.87;94.37;96069.09;5063014;28;19920;-82
2023/03/10 02:28:31;;;;;;;;;;;;;;;3.97;95.45;96069.03;5069899;28;19996;-82
2023/03/10 02:30:57;;;;;;;;;;;;;;;3.96;94.52;96057.69;5065971;28;20447;-82
2023/03/10 02:33:24;;;;;;;;;;;;;;;3.98;94.97;96057.38;5066104;28;19920;-82
2023/03/10 02:35:49;;;;;;;;;;;;;;;3.98;95.94;96046.84;5071506;28;20024;-81
2023/03/10 02:38:15;;;;;;;;;;;;;;;4.03;96.64;96042.31;5063996;28;19943;-81
2023/03/10 02:40:44;;;;;;;;;;;;;;;4.09;97.49;96024.59;5069062;28;20003;-82
2023/03/10 02:43:16;;;;;;;;;;;;;;;4.16;98.09;96030.34;5071948;28;19978;-82
2023/03/10 02:45:42;;;;;;;;;;;;;;;4.17;97.89;96034.56;5068918;28;19917;-82
2023/03/10 02:48:10;;;;;;;;;;;;;;;4.16;97.16;96020.59;5067892;28;19928;-82
2023/03/10 02:50:37;;;;;;;;;;;;;;;4.21;98.50;96019.75;5058078;28;19932;-82
2023/03/10 02:53:05;;;;;;;;;;;;;;;4.23;98.71;96010.50;5070746;28;19922;-81
2023/03/10 02:55:30;;;;;;;;;;;;;;;4.24;98.03;96008.63;5067148;28;20007;-81
2023/03/10 02:57:56;;;;;;;;;;;;;;;4.18;97.99;96017.66;5052321;28;19963;-81
2023/03/10 03:00:21;;;;;;;;;;;;;;;4.29;98.24;96008.59;5067709;28;19928;-82
2023/03/10 03:02:46;;;;;;;;;;;;;;;4.29;97.98;96008.59;5062758;28;19946;-81
2023/03/10 03:05:11;;;;;;;;;;;;;;;4.34;98.80;96004.06;5080439;28;19947;-81
2023/03/10 03:07:37;;;;;;;;;;;;;;;4.31;98.81;96001.97;5064896;28;19920;-81
2023/03/10 03:10:02;;;;;;;;;;;;;;;4.38;99.03;96005.06;5057691;28;20292;-81
2023/03/10 03:12:27;;;;;;;;;;;;;;;4.36;99.78;95993.22;5067599;28;20033;-81
2023/03/10 03:14:53;;;;;;;;;;;;;;;4.40;99.75;95994.22;5046915;28;20390;-82
2023/03/10 03:17:18;;;;;;;;;;;;;;;4.41;99.22;95986.03;5067098;28;20296;-82
2023/03/10 03:19:43;;;;;;;;;;;;;;;4.35;99.52;95989.78;5067803;28;20026;-81
2023/03/10 03:22:08;;;;;;;;;;;;;;;4.43;99.46;95983.88;5064333;28;20025;-82
2023/03/10 03:24:34;;;;;;;;;;;;;;;4.48;99.67;95986.47;5064907;28;20025;-81
2023/03/10 03:26:59;;;;;;;;;;;;;;;4.51;99.03;95979.84;5051584;28;20368;-82
2023/03/10 03:29:24;;;;;;;;;;;;;;;4.56;99.40;95977.94;5065934;28;19929;-81
2023/03/10 03:31:49;;;;;;;;;;;;;;;4.58;99.32;95975.03;5069913;28;19925;-83
2023/03/10 03:34:15;;;;;;;;;;;;;;;4.53;100.00;95975.88;5069198;28;19927;-82
2023/03/10 03:36:40;;;;;;;;;;;;;;;4.62;100.00;95975.25;5068779;28;19927;-82
2023/03/10 03:39:06;;;;;;;;;;;;;;;4.62;99.87;95975.25;5063430;28;19920;-82
2023/03/10 03:41:32;;;;;;;;;;;;;;;4.67;100.00;95983.13;5063426;28;19973;-81
2023/03/10 03:43:57;;;;;;;;;;;;;;;4.70;100.00;95977.28;5060509;28;19927;-81
2023/03/10 03:46:22;;;;;;;;;;;;;;;4.68;100.00;95982.06;5043900;28;20296;-81
2023/03/10 03:48:47;;;;;;;;;;;;;;;4.78;100.00;95984.59;5059277;28;19925;-82
2023/03/10 03:51:13;;;;;;;;;;;;;;;4.78;100.00;95982.75;5047592;28;19932;-81
2023/03/10 03:53:38;;;;;;;;;;;;;;;4.81;100.00;95994.59;5044846;28;19935;-81
2023/03/10 03:56:03;;;;;;;;;;;;;;;4.85;100.00;95985.06;5065539;28;19932;-82
2023/03/10 03:58:29;;;;;;;;;;;;;;;4.88;100.00;95985.25;5063348;28;19925;-83
2023/03/10 04:00:54;;;;;;;;;;;;;;;4.90;100.00;95982.34;5064368;28;19920;-82
2023/03/10 04:03:19;;;;;;;;;;;;;;;4.86;100.00;95984.75;5065115;28;19939;-81
2023/03/10 04:05:44;;;;;;;;;;;;;;;4.87;100.00;95981.03;5069497;28;19935;-84
2023/03/10 04:08:10;;;;;;;;;;;;;;;4.93;100.00;95998.44;5074873;28;19966;-84
2023/03/10 04:10:36;;;;;;;;;;;;;;;4.98;100.00;95992.28;5052694;28;19929;-83
2023/03/10 04:13:01;;;;;;;;;;;;;;;4.97;100.00;95993.34;5072054;28;19924;-83
2023/03/10 04:15:26;;;;;;;;;;;;;;;4.95;100.00;95995.50;5052383;28;19956;-83
2023/03/10 04:17:51;;;;;;;;;;;;;;;4.97;100.00;95982.78;5067684;28;19916;-84
2023/03/10 04:20:17;;;;;;;;;;;;;;;5.03;100.00;95984.28;5069888;28;19928;-83
2023/03/10 04:22:42;;;;;;;;;;;;;;;5.05;100.00;95996.16;5070201;28;19921;-83
2023/03/10 04:25:08;;;;;;;;;;;;;;;5.07;100.00;95990.56;5068275;28;19928;-82
2023/03/10 04:27:34;;;;;;;;;;;;;;;5.04;100.00;95996.44;5068251;28;19916;-83
2023/03/10 04:29:59;;;;;;;;;;;;;;;5.07;100.00;95991.38;5071612;28;20020;-83
2023/03/10 04:32:25;;;;;;;;;;;;;;;5.07;100.00;95995.88;5070156;28;20451;-83
2023/03/10 04:34:50;;;;;;;;;;;;;;;5.10;100.00;95990.03;5071651;28;19952;-82
2023/03/10 04:37:16;;;;;;;;;;;;;;;5.08;100.00;95995.59;5070759;28;19917;-82
2023/03/10 04:39:41;;;;;;;;;;;;;;;5.12;100.00;95996.59;5069302;28;19924;-83
2023/03/10 04:42:07;;;;;;;;;;;;;;;5.13;100.00;96005.31;5073294;28;20439;-82
2023/03/10 04:44:32;;;;;;;;;;;;;;;5.15;100.00;95996.06;5072354;28;19920;-84
2023/03/10 04:46:58;;;;;;;;;;;;;;;5.15;100.00;96000.53;5071788;28;19921;-83
2023/03/10 04:49:23;;;;;;;;;;;;;;;5.22;100.00;96011.56;5071934;28;19920;-83
2023/03/10 04:51:48;;;;;;;;;;;;;;;5.23;100.00;96018.41;5071980;28;19932;-83
2023/03/10 04:54:14;;;;;;;;;;;;;;;5.21;100.00;96024.00;5066565;28;19971;-83
2023/03/10 04:56:39;;;;;;;;;;;;;;;5.21;100.00;96031.13;5074120;28;20023;-83
2023/03/10 04:59:04;;;;;;;;;;;;;;;5.24;99.00;96028.69;5071702;28;19928;-84
2023/03/10 05:01:31;;;;;;;;;;;;;;;5.21;99.46;96023.19;5065187;28;20388;-82
2023/03/10 05:03:58;;;;;;;;;;;;;;;5.24;98.55;96012.06;5060028;28;19924;-84
2023/03/10 05:06:23;;;;;;;;;;;;;;;5.23;99.23;96024.50;5066203;28;19943;-83
2023/03/10 05:08:48;;;;;;;;;;;;;;;5.27;99.50;96009.63;5046704;28;20326;-82
2023/03/10 05:11:13;;;;;;;;;;;;;;;5.28;99.02;96007.78;5047172;28;19925;-82
2023/03/10 05:13:39;;;;;;;;;;;;;;;5.21;98.98;96009.97;5067382;28;19928;-83
2023/03/10 05:16:10;;;;;;;;;;;;;;;5.21;99.33;95994.91;5061464;28;19916;-82
2023/03/10 05:18:35;;;;;;;;;;;;;;;5.23;100.00;95998.06;5060946;28;19916;-82
2023/03/10 05:21:00;;;;;;;;;;;;;;;5.26;99.84;95996.69;5077457;28;19981;-82
2023/03/10 05:23:26;;;;;;;;;;;;;;;5.26;100.00;96000.13;5065748;28;19920;-83
2023/03/10 05:25:51;;;;;;;;;;;;;;;5.23;100.00;95991.97;5069542;28;19956;-84
2023/03/10 05:28:16;;;;;;;;;;;;;;;5.20;100.00;95998.59;5069705;28;19943;-84
2023/03/10 05:30:41;;;;;;;;;;;;;;;5.23;100.00;96003.34;5067171;28;20358;-84
2023/03/10 05:33:07;;;;;;;;;;;;;;;5.29;100.00;95996.13;5047960;28;19927;-84
2023/03/10 05:35:32;;;;;;;;;;;;;;;5.26;100.00;96002.00;5062847;28;19924;-84
2023/03/10 05:37:57;;;;;;;;;;;;;;;5.24;100.00;96012.06;5063773;28;19928;-84
2023/03/10 05:40:23;;;;;;;;;;;;;;;5.28;99.87;96005.94;5066660;28;19924;-83
2023/03/10 05:42:49;;;;;;;;;;;;;;;5.28;100.00;96007.78;5083390;28;19935;-84
2023/03/10 05:45:14;;;;;;;;;;;;;;;5.24;100.00;96009.44;5070318;28;19928;-83
2023/03/10 05:47:40;;;;;;;;;;;;;;;5.26;100.00;96013.34;5065376;28;19924;-84
2023/03/10 05:50:05;;;;;;;;;;;;;;;5.27;99.88;96017.56;5065677;28;19931;-83
2023/03/10 05:52:31;;;;;;;;;;;;;;;5.28;99.46;96008.56;5060598;28;19928;-85
2023/03/10 05:54:56;;;;;;;;;;;;;;;5.37;100.00;96010.56;5063775;28;19920;-83
2023/03/10 05:57:21;;;;;;;;;;;;;;;5.29;100.00;95999.56;5068581;28;20632;-80
2023/03/10 05:59:47;;;;;;;;;;;;;;;5.29;100.00;95998.75;5067512;28;19921;-80
2023/03/10 06:02:12;;;;;;;;;;;;;;;5.30;100.00;95995.06;5074222;28;19916;-80
2023/03/10 06:04:37;;;;;;;;;;;;;;;5.27;100.00;96003.56;5070357;28;19939;-80
2023/03/10 06:07:03;;;;;;;;;;;;;;;5.24;100.00;96007.53;5073045;28;19975;-81
2023/03/10 06:09:29;;;;;;;;;;;;;;;5.23;100.00;96016.56;5072139;28;19927;-81
2023/03/10 06:11:54;;;;;;;;;;;;;;;5.21;100.00;96021.34;5074182;28;19924;-81
2023/03/10 06:14:20;;;;;;;;;;;;;;;5.26;100.00;96023.16;5070754;28;19924;-80
2023/03/10 06:16:50;;;;;;;;;;;;;;;5.29;100.00;96026.00;5072430;28;20289;-80
2023/03/10 06:19:16;;;;;;;;;;;;;;;5.28;100.00;96026.28;5062626;28;19916;-81
2023/03/10 06:21:41;;;;;;;;;;;;;;;5.31;100.00;96031.78;5071034;28;19917;-81
2023/03/10 06:24:06;;;;;;;;;;;;;;;5.28;100.00;96023.66;5068791;28;20403;-80
2023/03/10 06:26:31;;;;;;;;;;;;;;;5.38;100.00;96030.66;5068982;28;19927;-80
2023/03/10 06:28:57;;;;;;;;;;;;;;;5.35;100.00;96024.09;5057807;28;19921;-81
2023/03/10 06:31:23;;;;;;;;;;;;;;;5.35;100.00;96020.66;5071044;28;20283;-80
2023/03/10 06:33:48;;;;;;;;;;;;;;;5.43;100.00;96018.16;5069288;28;19916;-81
2023/03/10 06:36:14;;;;;;;;;;;;;;;5.46;100.00;96019.44;5068582;28;19925;-80
2023/03/10 06:38:40;;;;;;;;;;;;;;;5.43;100.00;96028.75;5082327;28;20269;-80
2023/03/10 06:41:05;;;;;;;;;;;;;;;5.45;99.70;96029.25;5053431;28;19921;-80
2023/03/10 06:43:32;;;;;;;;;;;;;;;5.49;100.00;96037.38;5073685;28;20410;-80
2023/03/10 06:45:57;;;;;;;;;;;;;;;5.51;100.00;96029.94;5074176;28;20265;-79
2023/03/10 06:48:22;;;;;;;;;;;;;;;5.45;100.00;96023.94;5073909;28;20014;-80
2023/03/10 06:50:48;;;;;;;;;;;;;;;5.50;99.80;96021.25;5075308;28;19958;-80
2023/03/10 06:53:14;;;;;;;;;;;;;;;5.50;100.00;96010.66;5061915;28;19921;-80
2023/03/10 06:55:39;;;;;;;;;;;;;;;5.53;100.00;96025.94;5070819;28;20225;-80
2023/03/10 06:58:04;;;;;;;;;;;;;;;5.57;100.00;96029.59;5067949;28;19916;-81
2023/03/10 07:00:30;;;;;;;;;;;;;;;5.60;99.83;96028.25;5072242;28;19920;-80
2023/03/10 07:02:55;;;;;;;;;;;;;;;5.66;99.62;96035.81;5070287;28;19929;-79
2023/03/10 07:05:21;;;;;;;;;;;;;;;5.67;100.00;96028.69;5070812;28;19920;-80
2023/03/10 07:07:49;;;;;;;;;;;;;;;5.68;98.93;96031.03;5079865;28;19920;-80
2023/03/10 07:10:15;;;;;;;;;;;;;;;5.66;99.57;96030.53;5071887;28;19928;-79
2023/03/10 07:12:41;;;;;;;;;;;;;;;5.70;98.90;96036.06;5074073;28;19956;-80
2023/03/10 07:15:06;;;;;;;;;;;;;;;5.70;100.00;96039.47;5073955;28;19974;-80
2023/03/10 07:17:31;;;;;;;;;;;;;;;5.71;100.00;96043.69;5072011;28;19920;-79
2023/03/10 07:19:57;;;;;;;;;;;;;;;5.76;100.00;96040.19;5070691;28;20350;-79
2023/03/10 07:22:22;;;;;;;;;;;;;;;5.72;100.00;96042.59;5075067;28;20342;-79
2023/03/10 07:24:47;;;;;;;;;;;;;;;5.80;100.00;96046.50;5074257;28;19967;-80
2023/03/10 07:27:12;;;;;;;;;;;;;;;5.86;100.00;96050.66;5056558;28;19963;-80
2023/03/10 07:29:38;;;;;;;;;;;;;;;5.81;100.00;96046.19;5077808;28;19923;-80
2023/03/10 07:32:03;;;;;;;;;;;;;;;5.89;100.00;96044.81;5076142;28;19927;-80
2023/03/10 07:34:28;;;;;;;;;;;;;;;5.89;100.00;96052.75;5076814;28;20281;-80
2023/03/10 07:36:54;;;;;;;;;;;;;;;5.90;100.00;96049.81;5073949;28;19935;-81
2023/03/10 07:39:19;;;;;;;;;;;;;;;5.92;100.00;96052.16;5056102;28;19916;-80
2023/03/10 07:41:45;;;;;;;;;;;;;;;5.99;100.00;96063.19;5065944;28;20609;-79
2023/03/10 07:44:10;;;;;;;;;;;;;;;6.01;100.00;96068.97;5066537;28;19973;-80
2023/03/10 07:46:35;;;;;;;;;;;;;;;5.97;100.00;96075.91;5080323;28;20376;-80
2023/03/10 07:49:03;;;;;;;;;;;;;;;6.00;100.00;96073.50;5054266;28;19921;-79
2023/03/10 07:51:28;;;;;;;;;;;;;;;5.98;99.53;96072.97;5051606;28;19928;-79
2023/03/10 07:53:54;;;;;;;;;;;;;;;6.03;99.95;96072.91;5072581;28;20337;-79
2023/03/10 07:56:19;;;;;;;;;;;;;;;6.10;100.00;96074.41;5072657;28;19920;-79
2023/03/10 07:58:44;;;;;;;;;;;;;;;6.10;100.00;96080.50;5069716;28;20011;-79
2023/03/10 08:01:17;;;;;;;;;;;;;;;6.05;100.00;96083.19;5068379;28;19928;-80
2023/03/10 08:03:42;;;;;;;;;;;;;;;6.14;100.00;96080.72;5067603;28;19916;-80
2023/03/10 08:06:08;;;;;;;;;;;;;;;6.11;100.00;96083.94;5070226;28;19970;-80
2023/03/10 08:08:33;;;;;;;;;;;;;;;6.14;100.00;96075.41;5066657;28;19960;-79
2023/03/10 08:11:08;;;;;;;;;;;;;;;6.13;100.00;96079.94;5069038;28;20391;-81
2023/03/10 08:13:34;;;;;;;;;;;;;;;6.16;100.00;96078.56;5070315;28;19927;-80
2023/03/10 08:15:59;;;;;;;;;;;;;;;6.26;99.88;96089.00;5071006;28;19917;-79
2023/03/10 08:18:25;;;;;;;;;;;;;;;6.22;99.72;96082.69;5069722;28;20286;-80
2023/03/10 08:20:51;;;;;;;;;;;;;;;6.25;100.00;96082.91;5071325;28;19921;-80
2023/03/10 08:23:16;;;;;;;;;;;;;;;6.34;100.00;96085.69;5065473;28;19917;-78
2023/03/10 08:25:41;;;;;;;;;;;;;;;6.40;100.00;96087.19;5070403;28;19916;-79
2023/03/10 08:28:07;;;;;;;;;;;;;;;6.43;98.85;96081.31;5088501;28;20549;-79
2023/03/10 08:30:32;;;;;;;;;;;;;;;6.43;99.38;96081.31;5069126;28;19951;-79
2023/03/10 08:32:57;;;;;;;;;;;;;;;6.43;98.89;96083.94;5070276;28;19921;-79
2023/03/10 08:35:23;;;;;;;;;;;;;;;6.50;99.45;96085.16;5068813;28;20402;-79
2023/03/10 08:37:50;;;;;;;;;;;;;;;6.52;98.62;96080.38;5072415;28;19924;-79
2023/03/10 08:40:15;;;;;;;;;;;;;;;6.60;98.65;96090.28;5050958;28;20292;-79
2023/03/10 08:42:40;;;;;;;;;;;;;;;6.60;98.41;96070.94;5067178;28;20269;-80
2023/03/10 08:45:06;;;;;;;;;;;;;;;6.63;98.99;96076.47;5067398;28;19927;-80
2023/03/10 08:47:31;;;;;;;;;;;;;;;6.67;99.46;96085.41;5064526;28;19920;-80
2023/03/10 08:49:57;;;;;;;;;;;;;;;6.69;97.77;96074.50;5066674;28;20300;-81
2023/03/10 08:52:23;;;;;;;;;;;;;;;6.71;98.16;96075.78;5066190;28;20329;-80
2023/03/10 08:54:48;;;;;;;;;;;;;;;6.71;98.32;96080.31;5066773;28;19950;-80
2023/03/10 08:57:13;;;;;;;;;;;;;;;6.76;97.25;96081.03;5070651;28;19990;-80
2023/03/10 08:59:38;;;;;;;;;;;;;;;6.76;98.39;96081.03;5070387;28;19921;-80
2023/03/10 09:02:04;;;;;;;;;;;;;;;6.74;98.07;96080.53;5047692;28;19924;-79
2023/03/10 09:04:29;;;;;;;;;;;;;;;6.76;98.68;96077.56;5065803;28;20007;-79
2023/03/10 09:06:54;;;;;;;;;;;;;;;6.82;98.37;96090.44;5066970;28;19995;-80
2023/03/10 09:09:20;;;;;;;;;;;;;;;6.82;97.17;96085.16;5069570;28;20288;-80
2023/03/10 09:11:45;;;;;;;;;;;;;;;6.89;98.62;96100.69;5068220;28;19974;-80
2023/03/10 09:14:10;;;;;;;;;;;;;;;6.93;97.55;96098.22;5063759;28;20482;-79
2023/03/10 09:16:38;;;;;;;;;;;;;;;6.94;97.75;96090.00;5051713;28;20003;-79
2023/03/10 09:19:03;;;;;;;;;;;;;;;6.98;97.57;96090.19;5068081;28;19926;-80
2023/03/10 09:21:30;;;;;;;;;;;;;;;6.95;97.25;96096.84;5067517;28;19920;-80
2023/03/10 09:23:55;;;;;;;;;;;;;;;6.98;96.67;96100.78;5064232;28;19924;-80
2023/03/10 09:26:20;;;;;;;;;;;;;;;7.05;96.75;96096.69;5063755;28;19917;-79
2023/03/10 09:28:48;;;;;;;;;;;;;;;7.04;98.19;96086.34;5065689;28;19931;-80
2023/03/10 09:31:16;;;;;;;;;;;;;;;7.06;96.84;96095.59;5071999;28;20384;-79
2023/03/10 09:33:42;;;;;;;;;;;;;;;7.12;96.77;96098.94;5081384;28;20446;-80
2023/03/10 09:36:07;;;;;;;;;;;;;;;7.19;96.58;96100.13;5064857;28;20443;-80
2023/03/10 09:38:33;;;;;;;;;;;;;;;7.22;96.40;96101.41;5070006;28;20621;-80
2023/03/10 09:40:58;;;;;;;;;;;;;;;7.22;95.02;96096.09;5067434;28;20011;-81
2023/03/10 09:43:25;;;;;;;;;;;;;;;7.27;95.60;96096.00;5069141;28;19920;-81
2023/03/10 09:46:03;;;;;;;;;;;;;;;7.30;95.79;96090.91;5061928;28;19920;-81
2023/03/10 09:48:32;;;;;;;;;;;;;;;7.32;95.00;96094.03;5059966;28;20463;-80
2023/03/10 09:50:58;;;;;;;;;;;;;;;7.42;95.62;96093.84;5064297;28;19929;-80
2023/03/10 09:53:26;;;;;;;;;;;;;;;7.43;95.41;96091.97;5067019;28;19959;-80
2023/03/10 09:55:52;;;;;;;;;;;;;;;7.45;94.60;96095.09;5071620;28;20860;-81
2023/03/10 09:58:20;;;;;;;;;;;;;;;7.51;95.97;96094.72;5070371;28;20006;-80
2023/03/10 10:00:45;;;;;;;;;;;;;;;7.47;94.21;96092.94;5068130;28;19917;-80
2023/03/10 10:03:21;;;;;;;;;;;;;;;7.47;94.59;96092.94;5067573;28;20015;-80
2023/03/10 10:05:52;;;;;;;;;;;;;;;7.46;94.96;96097.50;5086326;28;19920;-79
2023/03/10 10:08:26;;;;;;;;;;;;;;;7.50;94.71;96097.69;5069027;28;19920;-80
2023/03/10 10:10:58;;;;;;;;;;;;;;;7.49;93.76;96102.19;5067936;28;20019;-80
2023/03/10 10:13:26;;;;;;;;;;;;;;;7.53;93.56;96100.50;5066880;28;19927;-80
2023/03/10 10:16:02;;;;;;;;;;;;;;;7.54;94.88;96103.97;5062695;28;20429;-78
2023/03/10 10:18:32;;;;;;;;;;;;;;;7.50;94.30;96098.47;5068073;28;19917;-79
2023/03/10 10:20:59;;;;;;;;;;;;;;;7.44;93.96;96104.16;5064153;28;20386;-78
2023/03/10 10:23:39;;;;;;;;;;;;;;;7.37;93.37;96096.59;5067045;28;19924;-78
2023/03/10 10:26:09;;;;;;;;;;;;;;;7.41;95.26;96094.13;5063655;28;20193;-78
2023/03/10 10:28:40;;;;;;;;;;;;;;;7.45;94.83;96095.91;5048419;28;20442;-79
2023/03/10 10:31:25;;;;;;;;;;;;;;;7.43;94.43;96103.38;5070491;28;19932;-79
2023/03/10 10:34:00;;;;;;;;;;;;;;;7.49;94.75;96094.22;5069443;28;19931;-79
2023/03/10 10:36:27;;;;;;;;;;;;;;;7.43;94.62;96095.41;5065874;28;19920;-80
2023/03/10 10:38:54;;;;;;;;;;;;;;;7.44;95.57;96097.00;5067329;28;19924;-80
2023/03/10 10:41:29;;;;;;;;;;;;;;;7.45;94.70;96100.41;5071839;28;19923;-80
2023/03/10 10:43:56;;;;;;;;;;;;;;;7.50;95.78;96102.97;5066950;28;20436;-80
2023/03/10 10:46:28;;;;;;;;;;;;;;;7.46;95.20;96092.19;5063198;28;19925;-80
2023/03/10 10:49:01;;;;;;;;;;;;;;;7.58;95.44;96097.75;5064194;28;20415;-80
2023/03/10 10:51:28;;;;;;;;;;;;;;;7.67;96.62;96092.53;5058689;28;20442;-79
2023/03/10 10:53:53;;;;;;;;;;;;;;;7.79;95.63;96094.69;5068759;28;19991;-80
2023/03/10 10:56:19;;;;;;;;;;;;;;;7.84;96.11;96079.44;5048591;28;19928;-79
2023/03/10 10:58:58;;;;;;;;;;;;;;;7.92;94.92;96085.91;5064922;28;19924;-79
2023/03/10 11:01:24;;;;;;;;;;;;;;;7.97;95.17;96081.28;5062738;28;19950;-80
2023/03/10 11:04:02;;;;;;;;;;;;;;;7.92;93.23;96073.44;5060456;28;20017;-80
2023/03/10 11:06:28;;;;;;;;;;;;;;;7.98;93.51;96064.25;5069847;28;19935;-81
2023/03/10 11:09:03;;;;;;;;;;;;;;;7.99;93.64;96062.41;5089278;28;19920;-79
2023/03/10 11:11:28;;;;;;;;;;;;;;;8.00;93.87;96061.31;5075464;28;20384;-80
2023/03/10 11:14:04;;;;;;;;;;;;;;;7.98;92.81;96050.19;5072404;28;20001;-80
2023/03/10 11:16:39;;;;;;;;;;;;;;;8.00;93.56;96063.97;5074693;28;19947;-80
2023/03/10 11:19:22;;;;;;;;;;;;;;;8.06;93.78;96062.78;5074194;28;19975;-80
2023/03/10 11:21:51;;;;;;;;;;;;;;;8.16;93.90;96057.22;5064038;28;19924;-81
2023/03/10 11:24:28;;;;;;;;;;;;;;;8.21;94.12;96049.91;5069074;28;19924;-80
2023/03/10 11:27:00;;;;;;;;;;;;;;;8.32;93.71;96063.00;5071280;28;19935;-79
2023/03/10 11:29:44;;;;;;;;;;;;;;;8.53;93.96;96058.75;5070747;28;19960;-80
2023/03/10 11:32:18;;;;;;;;;;;;;;;8.64;92.40;96057.44;5075031;28;20148;-81
2023/03/10 11:34:48;;;;;;;;;;;;;;;8.69;92.22;96055.41;5072351;28;20461;-80
2023/03/10 11:37:16;;;;;;;;;;;;;;;8.68;92.26;96056.53;5071079;28;19954;-80
2023/03/10 11:39:42;;;;;;;;;;;;;;;8.64;92.43;96054.78;5069573;28;20634;-80
2023/03/10 11:42:20;;;;;;;;;;;;;;;8.72;92.93;96060.13;5069112;28;19916;-81
2023/03/10 11:45:08;;;;;;;;;;;;;;;8.80;91.93;96056.72;5071959;28;19924;-81
2023/03/10 11:47:59;;;;;;;;;;;;;;;8.94;91.12;96051.31;5060974;28;19925;-80
2023/03/10 11:50:31;;;;;;;;;;;;;;;9.09;91.95;96055.50;5070579;28;20307;-80
2023/03/10 11:53:00;;;;;;;;;;;;;;;9.19;92.09;96045.34;5068259;28;20376;-81
2023/03/10 11:55:26;;;;;;;;;;;;;;;9.31;91.48;96050.84;5070987;28;19925;-80
2023/03/10 11:57:55;;;;;;;;;;;;;;;9.30;90.97;96056.50;5068296;28;20506;-80
2023/03/10 12:00:37;;;;;;;;;;;;;;;9.17;90.55;96060.06;5068621;28;19924;-80
2023/03/10 12:03:05;;;;;;;;;;;;;;;9.11;90.11;96062.03;5087836;28;19923;-80
2023/03/10 12:05:35;;;;;;;;;;;;;;;9.02;90.86;96064.66;5064031;28;19917;-80
2023/03/10 12:08:02;;;;;;;;;;;;;;;8.88;89.92;96052.56;5071544;28;19920;-81
2023/03/10 12:10:30;;;;;;;;;;;;;;;8.86;89.92;96052.88;5067620;28;20363;-81
2023/03/10 12:12:57;;;;;;;;;;;;;;;8.73;89.71;96048.44;5064945;28;21463;-81
2023/03/10 12:15:22;;;;;;;;;;;;;;;8.70;90.94;96054.34;5065099;28;19943;-81
2023/03/10 12:17:48;;;;;;;;;;;;;;;8.60;90.40;96057.25;5069572;28;19920;-83
2023/03/10 12:20:16;;;;;;;;;;;;;;;8.40;89.89;96052.44;5065917;28;19925;-82
2023/03/10 12:22:54;;;;;;;;;;;;;;;8.33;90.80;96057.38;5071972;28;19920;-81
2023/03/10 12:25:29;;;;;;;;;;;;;;;8.33;91.32;96054.72;5054137;28;19920;-81
2023/03/10 12:28:12;;;;;;;;;;;;;;;8.32;90.80;96050.50;5067528;28;19916;-81
2023/03/10 12:30:56;;;;;;;;;;;;;;;8.34;91.23;96050.19;5070385;28;19980;-82
2023/03/10 12:33:37;;;;;;;;;;;;;;;8.35;90.81;96049.09;5068216;28;20335;-82
2023/03/10 12:36:13;;;;;;;;;;;;;;;8.44;90.45;96053.41;5069477;28;19920;-81
2023/03/10 12:38:38;;;;;;;;;;;;;;;8.49;90.16;96039.19;5065815;28;19985;-81
2023/03/10 12:41:04;;;;;;;;;;;;;;;8.59;90.36;96028.31;5068379;28;19920;-80
2023/03/10 12:43:42;;;;;;;;;;;;;;;8.70;90.56;96024.31;5070290;28;19916;-81
2023/03/10 12:46:15;;;;;;;;;;;;;;;8.83;89.69;96021.56;5068039;28;19916;-81
2023/03/10 12:48:45;;;;;;;;;;;;;;;9.05;89.69;96020.72;5067845;28;20056;-80
2023/03/10 12:51:15;;;;;;;;;;;;;;;9.16;89.17;96018.56;5067003;28;20200;-81
2023/03/10 12:53:50;;;;;;;;;;;;;;;9.26;88.42;96027.03;5045441;28;20369;-81